RYR6NY EIDW-EIKY
Flight info
| Callsign | RYR6NY |
|---|---|
| Flight time | 0h 41m |
| Altitude | 22000 |
| Route | PELIG2J PELIG DCT KER |
| Aircraft | B738/M-SDE2E3FGHIRWXY/LB1 |
Departure
| Time | 2026-05-06 21:47 |
|---|---|
| Airport | Dublin Airport (EIDW) |
Arrival
| Time | 2026-05-06 22:29 |
|---|---|
| Airport | Kerry Airport (EIKY) |
| Time | Latitude | Longitude | Altitude | Speed | Heading |
|---|---|---|---|---|---|
| 2026-05-06 21:19 | 53.43003 | -6.24879 | 251 ft | 0 kts | 5° |
| 2026-05-06 21:31 | 53.42994 | -6.24880 | 251 ft | 2 kts | 356° |
| 2026-05-06 21:31 | 53.42981 | -6.24876 | 251 ft | 2 kts | 341° |
| 2026-05-06 21:31 | 53.42967 | -6.24865 | 251 ft | 2 kts | 326° |
| 2026-05-06 21:32 | 53.42956 | -6.24848 | 251 ft | 2 kts | 311° |
| 2026-05-06 21:32 | 53.42942 | -6.24803 | 251 ft | 2 kts | 281° |
| 2026-05-06 21:32 | 53.42941 | -6.24778 | 251 ft | 2 kts | 270° |
| 2026-05-06 21:33 | 53.42940 | -6.24756 | 251 ft | 0 kts | 275° |
| 2026-05-06 21:33 | 53.42940 | -6.24754 | 251 ft | 0 kts | 275° |
| 2026-05-06 21:35 | 53.42940 | -6.24755 | 251 ft | 0 kts | 275° |
| 2026-05-06 21:36 | 53.42940 | -6.24761 | 251 ft | 3 kts | 275° |
| 2026-05-06 21:36 | 53.42943 | -6.24818 | 251 ft | 11 kts | 275° |
| 2026-05-06 21:37 | 53.42948 | -6.24907 | 251 ft | 10 kts | 276° |
| 2026-05-06 21:37 | 53.42952 | -6.24972 | 251 ft | 8 kts | 276° |
| 2026-05-06 21:37 | 53.42954 | -6.25000 | 251 ft | 7 kts | 276° |
| 2026-05-06 21:37 | 53.42955 | -6.25038 | 251 ft | 8 kts | 272° |
| 2026-05-06 21:38 | 53.42960 | -6.25143 | 251 ft | 17 kts | 275° |
| 2026-05-06 21:38 | 53.42947 | -6.25321 | 251 ft | 10 kts | 284° |
| 2026-05-06 21:38 | 53.43002 | -6.25394 | 251 ft | 11 kts | 335° |
| 2026-05-06 21:38 | 53.43082 | -6.25452 | 251 ft | 14 kts | 338° |
| 2026-05-06 21:39 | 53.43180 | -6.25520 | 251 ft | 17 kts | 336° |
| 2026-05-06 21:39 | 53.43286 | -6.25598 | 251 ft | 15 kts | 337° |
| 2026-05-06 21:39 | 53.43371 | -6.25632 | 251 ft | 11 kts | 7° |
| 2026-05-06 21:39 | 53.43406 | -6.25570 | 251 ft | 9 kts | 85° |
| 2026-05-06 21:40 | 53.43402 | -6.25476 | 251 ft | 16 kts | 96° |
| 2026-05-06 21:40 | 53.43395 | -6.25327 | 251 ft | 23 kts | 96° |
| 2026-05-06 21:40 | 53.43386 | -6.25168 | 251 ft | 24 kts | 95° |
| 2026-05-06 21:40 | 53.43376 | -6.24988 | 251 ft | 17 kts | 94° |
| 2026-05-06 21:41 | 53.43366 | -6.24799 | 251 ft | 15 kts | 94° |
| 2026-05-06 21:41 | 53.43359 | -6.24660 | 251 ft | 12 kts | 95° |
| 2026-05-06 21:41 | 53.43390 | -6.24564 | 251 ft | 4 kts | 15° |
| 2026-05-06 21:41 | 53.43397 | -6.24563 | 251 ft | 0 kts | 8° |
| 2026-05-06 21:45 | 53.43398 | -6.24562 | 251 ft | 1 kts | 8° |
| 2026-05-06 21:46 | 53.43464 | -6.24548 | 251 ft | 14 kts | 7° |
| 2026-05-06 21:46 | 53.43526 | -6.24587 | 251 ft | 8 kts | 279° |
| 2026-05-06 21:46 | 53.43532 | -6.24678 | 251 ft | 8 kts | 277° |
| 2026-05-06 21:46 | 53.43546 | -6.25178 | 251 ft | 77 kts | 278° |
| 2026-05-06 21:47 | 53.43626 | -6.26443 | 252 ft | 138 kts | 276° |
| 2026-05-06 21:47 | 53.43736 | -6.28357 | 516 ft | 173 kts | 274° |
| 2026-05-06 21:47 | 53.43871 | -6.30394 | 1196 ft | 180 kts | 279° |
| 2026-05-06 21:47 | 53.44362 | -6.32267 | 1717 ft | 177 kts | 310° |
| 2026-05-06 21:48 | 53.45410 | -6.33505 | 1910 ft | 188 kts | 330° |
| 2026-05-06 21:48 | 53.46423 | -6.34848 | 2094 ft | 186 kts | 306° |
| 2026-05-06 21:48 | 53.47182 | -6.36664 | 2305 ft | 198 kts | 303° |
| 2026-05-06 21:48 | 53.47998 | -6.38607 | 2491 ft | 197 kts | 303° |
| 2026-05-06 21:49 | 53.48798 | -6.40493 | 2677 ft | 196 kts | 303° |
| 2026-05-06 21:49 | 53.49668 | -6.42590 | 2399 ft | 240 kts | 303° |
| 2026-05-06 21:49 | 53.50669 | -6.44970 | 2217 ft | 253 kts | 302° |
| 2026-05-06 21:49 | 53.51290 | -6.47663 | 2189 ft | 253 kts | 271° |
| 2026-05-06 21:50 | 53.50917 | -6.50435 | 2273 ft | 249 kts | 239° |
| 2026-05-06 21:50 | 53.49961 | -6.52875 | 2439 ft | 249 kts | 236° |
| 2026-05-06 21:50 | 53.49086 | -6.55397 | 2789 ft | 245 kts | 240° |
| 2026-05-06 21:50 | 53.48270 | -6.57988 | 3338 ft | 257 kts | 242° |
| 2026-05-06 21:51 | 53.47462 | -6.60629 | 4560 ft | 252 kts | 242° |
| 2026-05-06 21:51 | 53.46684 | -6.63166 | 5463 ft | 257 kts | 240° |
| 2026-05-06 21:51 | 53.45756 | -6.65753 | 6553 ft | 257 kts | 236° |
| 2026-05-06 21:51 | 53.44811 | -6.68189 | 7502 ft | 259 kts | 236° |
| 2026-05-06 21:52 | 53.43893 | -6.70601 | 8415 ft | 262 kts | 236° |
| 2026-05-06 21:52 | 53.42913 | -6.73189 | 9353 ft | 265 kts | 236° |
| 2026-05-06 21:52 | 53.41958 | -6.75713 | 10238 ft | 267 kts | 237° |
| 2026-05-06 21:52 | 53.40997 | -6.78255 | 11093 ft | 270 kts | 237° |
| 2026-05-06 21:53 | 53.40081 | -6.80677 | 11888 ft | 273 kts | 237° |
| 2026-05-06 21:53 | 53.39062 | -6.83368 | 12792 ft | 273 kts | 237° |
| 2026-05-06 21:53 | 53.38038 | -6.86071 | 13705 ft | 273 kts | 237° |
| 2026-05-06 21:53 | 53.37021 | -6.88755 | 14569 ft | 274 kts | 237° |
| 2026-05-06 21:54 | 53.36018 | -6.91399 | 15394 ft | 275 kts | 237° |
| 2026-05-06 21:54 | 53.35028 | -6.94005 | 16190 ft | 275 kts | 237° |
| 2026-05-06 21:54 | 53.34068 | -6.96529 | 16937 ft | 275 kts | 237° |
| 2026-05-06 21:54 | 53.33041 | -6.99227 | 17726 ft | 275 kts | 237° |
| 2026-05-06 21:55 | 53.32036 | -7.01868 | 18468 ft | 276 kts | 237° |
| 2026-05-06 21:55 | 53.31006 | -7.04573 | 19205 ft | 276 kts | 237° |
| 2026-05-06 21:55 | 53.29968 | -7.07299 | 19918 ft | 277 kts | 237° |
| 2026-05-06 21:55 | 53.28960 | -7.09942 | 20591 ft | 277 kts | 236° |
| 2026-05-06 21:56 | 53.27918 | -7.12670 | 21243 ft | 278 kts | 236° |
| 2026-05-06 21:56 | 53.26876 | -7.15395 | 21856 ft | 278 kts | 236° |
| 2026-05-06 21:56 | 53.25847 | -7.18087 | 22008 ft | 283 kts | 236° |
| 2026-05-06 21:56 | 53.24786 | -7.20856 | 21993 ft | 282 kts | 236° |
| 2026-05-06 21:57 | 53.23822 | -7.23372 | 21992 ft | 279 kts | 236° |
| 2026-05-06 21:57 | 53.23000 | -7.25511 | 21993 ft | 279 kts | 236° |
| 2026-05-06 21:57 | 53.21970 | -7.28191 | 21994 ft | 279 kts | 236° |
| 2026-05-06 21:57 | 53.21007 | -7.30689 | 21993 ft | 279 kts | 236° |
| 2026-05-06 21:58 | 53.17839 | -7.37823 | 21993 ft | 279 kts | 231° |
| 2026-05-06 21:58 | 53.16627 | -7.40305 | 21993 ft | 279 kts | 231° |
| 2026-05-06 21:59 | 53.15454 | -7.42725 | 21993 ft | 279 kts | 231° |
| 2026-05-06 21:59 | 53.14252 | -7.45205 | 21993 ft | 279 kts | 231° |
| 2026-05-06 21:59 | 53.13110 | -7.47561 | 21993 ft | 279 kts | 231° |
| 2026-05-06 21:59 | 53.12100 | -7.49646 | 21993 ft | 279 kts | 231° |
| 2026-05-06 22:00 | 53.10912 | -7.52096 | 21971 ft | 279 kts | 231° |
| 2026-05-06 22:00 | 53.09798 | -7.54391 | 21984 ft | 278 kts | 231° |
| 2026-05-06 22:00 | 53.08668 | -7.56715 | 21992 ft | 278 kts | 231° |
| 2026-05-06 22:01 | 53.06337 | -7.61501 | 21993 ft | 277 kts | 232° |
| 2026-05-06 22:01 | 53.05233 | -7.63763 | 21993 ft | 277 kts | 232° |
| 2026-05-06 22:01 | 53.04353 | -7.65564 | 21993 ft | 276 kts | 231° |
| 2026-05-06 22:01 | 53.03153 | -7.68007 | 21993 ft | 276 kts | 231° |
| 2026-05-06 22:02 | 53.01934 | -7.70484 | 21999 ft | 286 kts | 232° |
| 2026-05-06 22:02 | 53.00648 | -7.73104 | 21993 ft | 290 kts | 232° |
| 2026-05-06 22:02 | 52.99352 | -7.75742 | 21992 ft | 290 kts | 232° |
| 2026-05-06 22:02 | 52.98087 | -7.78202 | 21991 ft | 289 kts | 231° |
| 2026-05-06 22:03 | 52.96807 | -7.80628 | 21970 ft | 287 kts | 231° |
| 2026-05-06 22:03 | 52.95536 | -7.83063 | 21965 ft | 287 kts | 231° |
| 2026-05-06 22:03 | 52.94263 | -7.85515 | 21965 ft | 287 kts | 231° |
| 2026-05-06 22:03 | 52.93016 | -7.87921 | 21965 ft | 287 kts | 232° |
| 2026-05-06 22:04 | 52.91763 | -7.90343 | 21965 ft | 287 kts | 232° |
| 2026-05-06 22:04 | 52.90512 | -7.92758 | 21965 ft | 287 kts | 232° |
| 2026-05-06 22:04 | 52.89309 | -7.95081 | 21966 ft | 287 kts | 232° |
| 2026-05-06 22:04 | 52.88112 | -7.97394 | 21966 ft | 286 kts | 232° |
| 2026-05-06 22:05 | 52.86863 | -7.99807 | 21965 ft | 286 kts | 232° |
| 2026-05-06 22:05 | 52.85578 | -8.02285 | 21966 ft | 286 kts | 232° |
| 2026-05-06 22:05 | 52.84294 | -8.04758 | 21966 ft | 286 kts | 232° |
| 2026-05-06 22:05 | 52.82995 | -8.07258 | 21966 ft | 287 kts | 232° |
| 2026-05-06 22:06 | 52.81726 | -8.09701 | 21965 ft | 287 kts | 232° |
| 2026-05-06 22:06 | 52.80528 | -8.12002 | 21966 ft | 286 kts | 232° |
| 2026-05-06 22:06 | 52.79237 | -8.14481 | 21966 ft | 287 kts | 232° |
| 2026-05-06 22:06 | 52.77953 | -8.16941 | 21966 ft | 287 kts | 232° |
| 2026-05-06 22:07 | 52.76779 | -8.19196 | 22067 ft | 301 kts | 232° |
| 2026-05-06 22:07 | 52.75417 | -8.21805 | 22083 ft | 312 kts | 231° |
| 2026-05-06 22:07 | 52.74011 | -8.24493 | 22014 ft | 321 kts | 231° |
| 2026-05-06 22:07 | 52.72684 | -8.27026 | 21970 ft | 330 kts | 231° |
| 2026-05-06 22:08 | 52.71186 | -8.29882 | 21966 ft | 337 kts | 231° |
| 2026-05-06 22:08 | 52.69722 | -8.32669 | 21965 ft | 344 kts | 231° |
| 2026-05-06 22:08 | 52.68206 | -8.35552 | 21965 ft | 350 kts | 231° |
| 2026-05-06 22:08 | 52.66650 | -8.38508 | 21965 ft | 356 kts | 231° |
| 2026-05-06 22:09 | 52.64993 | -8.41653 | 21966 ft | 361 kts | 231° |
| 2026-05-06 22:09 | 52.63314 | -8.44834 | 21965 ft | 366 kts | 231° |
| 2026-05-06 22:09 | 52.61637 | -8.48009 | 21966 ft | 370 kts | 231° |
| 2026-05-06 22:09 | 52.59992 | -8.51120 | 21965 ft | 373 kts | 231° |
| 2026-05-06 22:10 | 52.58340 | -8.54238 | 21965 ft | 374 kts | 231° |
| 2026-05-06 22:10 | 52.56616 | -8.57490 | 21940 ft | 375 kts | 231° |
| 2026-05-06 22:10 | 52.54917 | -8.60688 | 21566 ft | 367 kts | 231° |
| 2026-05-06 22:10 | 52.53258 | -8.63809 | 21186 ft | 351 kts | 231° |
| 2026-05-06 22:11 | 52.51698 | -8.66740 | 20729 ft | 335 kts | 230° |
| 2026-05-06 22:11 | 52.50326 | -8.69303 | 20008 ft | 322 kts | 231° |
| 2026-05-06 22:11 | 52.49023 | -8.71743 | 19156 ft | 316 kts | 231° |
| 2026-05-06 22:11 | 52.47771 | -8.74095 | 18300 ft | 312 kts | 231° |
| 2026-05-06 22:12 | 52.46576 | -8.76347 | 17461 ft | 309 kts | 231° |
| 2026-05-06 22:12 | 52.45216 | -8.78907 | 16460 ft | 307 kts | 230° |
| 2026-05-06 22:12 | 52.43854 | -8.81440 | 15460 ft | 306 kts | 227° |
| 2026-05-06 22:12 | 52.42388 | -8.83219 | 14716 ft | 306 kts | 208° |
| 2026-05-06 22:13 | 52.40831 | -8.83833 | 14094 ft | 313 kts | 187° |
| 2026-05-06 22:13 | 52.38890 | -8.83214 | 13333 ft | 324 kts | 162° |
| 2026-05-06 22:13 | 52.37289 | -8.81775 | 12614 ft | 326 kts | 156° |
| 2026-05-06 22:13 | 52.35393 | -8.80558 | 11721 ft | 312 kts | 176° |
| 2026-05-06 22:14 | 52.33641 | -8.80656 | 10889 ft | 296 kts | 199° |
| 2026-05-06 22:14 | 52.32140 | -8.81943 | 9987 ft | 290 kts | 223° |
| 2026-05-06 22:14 | 52.31003 | -8.84512 | 8988 ft | 293 kts | 244° |
| 2026-05-06 22:14 | 52.30424 | -8.87498 | 8025 ft | 296 kts | 252° |
| 2026-05-06 22:15 | 52.29972 | -8.90345 | 7104 ft | 298 kts | 252° |
| 2026-05-06 22:15 | 52.29480 | -8.93289 | 6237 ft | 297 kts | 251° |
| 2026-05-06 22:15 | 52.28934 | -8.96535 | 5323 ft | 294 kts | 251° |
| 2026-05-06 22:15 | 52.28370 | -8.99730 | 4598 ft | 285 kts | 250° |
| 2026-05-06 22:16 | 52.27847 | -9.02848 | 3968 ft | 277 kts | 251° |
| 2026-05-06 22:16 | 52.27397 | -9.05577 | 3396 ft | 271 kts | 251° |
| 2026-05-06 22:16 | 52.26947 | -9.08270 | 2992 ft | 259 kts | 251° |
| 2026-05-06 22:16 | 52.26548 | -9.10654 | 2957 ft | 238 kts | 251° |
| 2026-05-06 22:17 | 52.26159 | -9.12977 | 2960 ft | 212 kts | 250° |
| 2026-05-06 22:17 | 52.25745 | -9.15311 | 2964 ft | 210 kts | 248° |
| 2026-05-06 22:17 | 52.25297 | -9.17508 | 2968 ft | 211 kts | 248° |
| 2026-05-06 22:17 | 52.24831 | -9.19797 | 2966 ft | 211 kts | 248° |
| 2026-05-06 22:18 | 52.24385 | -9.21984 | 2970 ft | 213 kts | 255° |
| 2026-05-06 22:18 | 52.23938 | -9.23943 | 2990 ft | 215 kts | 250° |
| 2026-05-06 22:18 | 52.23430 | -9.25967 | 2986 ft | 206 kts | 252° |
| 2026-05-06 22:18 | 52.23057 | -9.27708 | 2975 ft | 185 kts | 255° |
| 2026-05-06 22:19 | 52.22809 | -9.29048 | 2988 ft | 183 kts | 262° |
| 2026-05-06 22:19 | 52.22889 | -9.30807 | 2989 ft | 178 kts | 300° |
| 2026-05-06 22:19 | 52.23488 | -9.32312 | 3002 ft | 179 kts | 291° |
| 2026-05-06 22:19 | 52.23418 | -9.33880 | 2967 ft | 187 kts | 241° |
| 2026-05-06 22:20 | 52.22461 | -9.35229 | 3093 ft | 190 kts | 213° |
| 2026-05-06 22:20 | 52.21600 | -9.36175 | 3201 ft | 193 kts | 218° |
| 2026-05-06 22:20 | 52.20493 | -9.36986 | 2862 ft | 199 kts | 187° |
| 2026-05-06 22:20 | 52.19330 | -9.36901 | 2801 ft | 191 kts | 175° |
| 2026-05-06 22:21 | 52.17984 | -9.36667 | 2929 ft | 195 kts | 175° |
| 2026-05-06 22:21 | 52.16606 | -9.36432 | 2989 ft | 197 kts | 175° |
| 2026-05-06 22:21 | 52.15241 | -9.36027 | 2989 ft | 197 kts | 163° |
| 2026-05-06 22:21 | 52.14045 | -9.34919 | 2975 ft | 197 kts | 127° |
| 2026-05-06 22:22 | 52.13641 | -9.32914 | 2994 ft | 191 kts | 82° |
| 2026-05-06 22:22 | 52.13916 | -9.30872 | 3014 ft | 190 kts | 72° |
| 2026-05-06 22:22 | 52.14255 | -9.28760 | 2993 ft | 189 kts | 72° |
| 2026-05-06 22:22 | 52.14587 | -9.26665 | 2991 ft | 189 kts | 72° |
| 2026-05-06 22:23 | 52.15126 | -9.24816 | 2974 ft | 183 kts | 39° |
| 2026-05-06 22:23 | 52.16286 | -9.24082 | 2995 ft | 178 kts | 355° |
| 2026-05-06 22:23 | 52.17435 | -9.24560 | 3011 ft | 177 kts | 340° |
| 2026-05-06 22:23 | 52.18646 | -9.25049 | 2993 ft | 177 kts | 349° |
| 2026-05-06 22:24 | 52.19616 | -9.25299 | 2923 ft | 179 kts | 350° |
| 2026-05-06 22:24 | 52.20690 | -9.25565 | 2820 ft | 175 kts | 351° |
| 2026-05-06 22:24 | 52.21856 | -9.25992 | 2788 ft | 176 kts | 334° |
| 2026-05-06 22:24 | 52.22710 | -9.27310 | 2786 ft | 177 kts | 298° |
| 2026-05-06 22:25 | 52.22916 | -9.29141 | 2792 ft | 182 kts | 266° |
| 2026-05-06 22:25 | 52.22619 | -9.30841 | 2798 ft | 185 kts | 252° |
| 2026-05-06 22:25 | 52.22166 | -9.32822 | 2788 ft | 185 kts | 253° |
| 2026-05-06 22:25 | 52.21739 | -9.34815 | 2546 ft | 177 kts | 254° |
| 2026-05-06 22:26 | 52.21446 | -9.36210 | 2315 ft | 168 kts | 254° |
| 2026-05-06 22:26 | 52.21076 | -9.37993 | 2057 ft | 160 kts | 254° |
| 2026-05-06 22:26 | 52.20714 | -9.39741 | 1811 ft | 160 kts | 253° |
| 2026-05-06 22:26 | 52.20358 | -9.41456 | 1581 ft | 153 kts | 253° |
| 2026-05-06 22:27 | 52.20023 | -9.43074 | 1326 ft | 145 kts | 253° |
| 2026-05-06 22:27 | 52.19703 | -9.44612 | 1075 ft | 136 kts | 253° |
| 2026-05-06 22:27 | 52.19402 | -9.46065 | 741 ft | 134 kts | 252° |
| 2026-05-06 22:27 | 52.19095 | -9.47543 | 751 ft | 138 kts | 252° |
| 2026-05-06 22:28 | 52.18766 | -9.49124 | 521 ft | 152 kts | 252° |
| 2026-05-06 22:28 | 52.18521 | -9.50319 | 232 ft | 141 kts | 252° |
| 2026-05-06 22:28 | 52.18270 | -9.51515 | 124 ft | 125 kts | 251° |
| 2026-05-06 22:28 | 52.18036 | -9.52629 | 99 ft | 61 kts | 250° |
| 2026-05-06 22:29 | 52.17930 | -9.53145 | 93 ft | 40 kts | 249° |
| 2026-05-06 22:29 | 52.17883 | -9.53364 | 91 ft | 11 kts | 252° |
| 2026-05-06 22:29 | 52.17860 | -9.53534 | 88 ft | 16 kts | 289° |
| 2026-05-06 22:29 | 52.17955 | -9.53607 | 88 ft | 13 kts | 344° |
| 2026-05-06 22:30 | 52.17997 | -9.53626 | 88 ft | 1 kts | 346° |
| 2026-05-06 22:30 | 52.18024 | -9.53648 | 88 ft | 7 kts | 332° |
| 2026-05-06 22:30 | 52.18057 | -9.53673 | 87 ft | 4 kts | 345° |
| 2026-05-06 22:30 | 52.18084 | -9.53679 | 86 ft | 0 kts | 353° |